Time;durP1;ratioP1;P1;durP2;ratioP2;P2;SDS_P1;SDS_P2;PMS_P1;PMS_P2;Temp;Humidity;BMP_temperature;BMP_pressure;BME280_temperature;BME280_humidity;BME280_pressure;Samples;Min_cycle;Max_cycle;Signal;HPM_P1;HPM_P2
2023/05/05 00:00:58;;;;;;;5.20;4.80;;;;;;;14.58;100.00;100291.97;5032825;28;20184;-76
2023/05/05 00:03:24;;;;;;;4.60;4.23;;;;;;;14.62;100.00;100291.00;5033677;28;20207;-77
2023/05/05 00:05:51;;;;;;;4.97;4.60;;;;;;;14.64;100.00;100292.66;5031753;28;20263;-76
2023/05/05 00:08:17;;;;;;;5.43;4.97;;;;;;;14.68;100.00;100290.00;5014463;28;20274;-76
2023/05/05 00:10:47;;;;;;;5.10;4.70;;;;;;;14.72;100.00;100289.06;5031633;28;20691;-76
2023/05/05 00:13:13;;;;;;;4.33;4.03;;;;;;;14.74;100.00;100285.50;5032990;28;20214;-75
2023/05/05 00:15:41;;;;;;;5.17;4.60;;;;;;;14.76;100.00;100286.31;5031531;28;20204;-75
2023/05/05 00:18:06;;;;;;;5.10;4.77;;;;;;;14.80;100.00;100286.25;5034923;28;20183;-76
2023/05/05 00:20:32;;;;;;;5.00;4.60;;;;;;;14.82;100.00;100282.69;5033158;28;20203;-76
2023/05/05 00:22:57;;;;;;;5.13;4.63;;;;;;;14.84;100.00;100267.88;5037020;28;20211;-76
2023/05/05 00:25:22;;;;;;;5.20;4.80;;;;;;;14.86;100.00;100278.25;5035723;28;20187;-76
2023/05/05 00:27:48;;;;;;;5.47;5.03;;;;;;;14.87;100.00;100270.41;5033684;28;20179;-76
2023/05/05 00:30:13;;;;;;;5.23;4.83;;;;;;;14.89;100.00;100267.75;5033392;28;20192;-76
2023/05/05 00:32:38;;;;;;;5.10;4.70;;;;;;;14.89;100.00;100268.63;5015227;28;20203;-76
2023/05/05 00:35:05;;;;;;;5.27;4.87;;;;;;;14.88;100.00;100264.31;5012658;28;20184;-76
2023/05/05 00:37:30;;;;;;;5.10;4.70;;;;;;;14.89;100.00;100262.53;5030488;28;20198;-76
2023/05/05 00:39:56;;;;;;;4.67;4.27;;;;;;;14.89;100.00;100259.94;5034540;28;20261;-76
2023/05/05 00:42:21;;;;;;;5.33;4.93;;;;;;;14.90;100.00;100259.88;5033336;28;20221;-75
2023/05/05 00:44:46;;;;;;;4.70;4.40;;;;;;;14.91;100.00;100263.34;5032934;28;20733;-76
2023/05/05 00:47:13;;;;;;;4.97;4.57;;;;;;;14.90;100.00;100259.88;5032345;28;20932;-76
2023/05/05 00:49:39;;;;;;;4.37;3.97;;;;;;;14.88;100.00;100264.31;5031540;28;20218;-76
2023/05/05 00:52:06;;;;;;;4.63;4.33;;;;;;;14.89;100.00;100257.31;5015798;28;20292;-76
2023/05/05 00:54:33;;;;;;;4.90;4.50;;;;;;;14.91;100.00;100258.97;5032879;28;20247;-76
2023/05/05 00:56:58;;;;;;;4.80;4.50;;;;;;;14.90;100.00;100265.09;5033075;28;20245;-76
2023/05/05 00:59:24;;;;;;;4.77;4.47;;;;;;;14.91;100.00;100261.59;5028834;28;20191;-76
2023/05/05 01:01:50;;;;;;;4.97;4.67;;;;;;;14.93;100.00;100271.97;5030568;28;20498;-76
2023/05/05 01:04:15;;;;;;;4.93;4.53;;;;;;;14.93;100.00;100267.63;5032160;28;20199;-77
2023/05/05 01:07:14;;;;;;;5.00;4.57;;;;;;;14.95;100.00;100267.59;5031852;28;20222;-74
2023/05/05 01:09:51;;;;;;;4.83;4.43;;;;;;;14.97;100.00;100277.97;5029303;28;20211;-76
2023/05/05 01:12:25;;;;;;;4.87;4.57;;;;;;;14.98;100.00;100277.06;5031204;28;20222;-76
2023/05/05 01:14:56;;;;;;;4.33;4.03;;;;;;;15.00;100.00;100280.50;5033039;28;20233;-76
2023/05/05 01:17:32;;;;;;;4.90;4.50;;;;;;;15.01;100.00;100282.19;5030695;28;20188;-78
2023/05/05 01:20:10;;;;;;;4.00;3.70;;;;;;;15.03;100.00;100280.41;5028162;28;20265;-76
2023/05/05 01:22:44;;;;;;;4.53;4.13;;;;;;;15.05;100.00;100294.25;5032687;28;20230;-76
2023/05/05 01:25:25;;;;;;;4.83;4.43;;;;;;;15.05;100.00;100286.44;5031345;28;20201;-76
2023/05/05 01:27:54;;;;;;;4.27;4.03;;;;;;;15.08;100.00;100295.03;5032393;28;20187;-77
2023/05/05 01:30:38;;;;;;;5.07;4.57;;;;;;;15.13;100.00;100294.00;5016248;28;20199;-77
2023/05/05 01:33:07;;;;;;;8.13;4.53;;;;;;;15.15;99.97;100295.69;5030886;28;20655;-75
2023/05/05 01:35:38;;;;;;;5.47;5.07;;;;;;;15.17;99.93;100290.44;5029954;28;20293;-76
2023/05/05 01:38:10;;;;;;;4.53;4.23;;;;;;;15.16;100.00;100297.41;5034848;28;20195;-76
2023/05/05 01:41:12;;;;;;;4.30;4.00;;;;;;;15.15;99.79;100302.66;5014837;28;20191;-76
2023/05/05 01:43:40;;;;;;;4.40;4.10;;;;;;;15.14;99.95;100308.75;5032084;28;20206;-77
2023/05/05 01:46:07;;;;;;;4.47;4.17;;;;;;;15.12;100.00;100300.16;5033551;28;20191;-77
2023/05/05 01:48:32;;;;;;;5.07;4.70;;;;;;;15.10;100.00;100302.78;5017251;28;20184;-76
2023/05/05 01:51:00;;;;;;;4.23;3.93;;;;;;;15.08;100.00;100301.97;5027447;28;20212;-76
2023/05/05 01:53:26;;;;;;;5.03;4.50;;;;;;;15.06;100.00;100306.34;5015873;28;20304;-76
2023/05/05 01:55:53;;;;;;;4.90;4.60;;;;;;;15.04;100.00;100298.59;5019330;28;20727;-76
2023/05/05 01:58:21;;;;;;;5.23;4.73;;;;;;;15.03;100.00;100299.50;5032170;28;20187;-75
2023/05/05 02:00:49;;;;;;;5.10;4.80;;;;;;;15.04;100.00;100295.16;5035350;28;20559;-76
2023/05/05 02:03:17;;;;;;;5.37;4.97;;;;;;;15.04;100.00;100300.38;5034679;28;20215;-76
2023/05/05 02:05:44;;;;;;;5.10;4.70;;;;;;;15.02;100.00;100303.00;5031921;28;20263;-77
2023/05/05 02:08:10;;;;;;;5.13;4.63;;;;;;;15.00;100.00;100315.22;5033497;28;20993;-76
2023/05/05 02:10:39;;;;;;;4.57;4.27;;;;;;;14.99;100.00;100316.09;5032072;28;20226;-76
2023/05/05 02:13:06;;;;;;;4.90;4.50;;;;;;;14.98;100.00;100313.53;5032707;28;20254;-76
2023/05/05 02:15:34;;;;;;;4.70;4.30;;;;;;;14.97;100.00;100317.03;5014518;28;20215;-75
2023/05/05 02:18:01;;;;;;;4.43;4.03;;;;;;;14.94;100.00;100318.00;5031501;28;20179;-76
2023/05/05 02:20:29;;;;;;;4.83;4.53;;;;;;;14.91;100.00;100311.09;5032566;28;20233;-76
2023/05/05 02:22:55;;;;;;;4.70;4.30;;;;;;;14.90;100.00;100317.19;5011570;28;20308;-77
2023/05/05 02:25:22;;;;;;;5.30;4.90;;;;;;;14.88;100.00;100313.81;5025997;28;20281;-75
2023/05/05 02:27:52;;;;;;;4.30;4.00;;;;;;;14.87;100.00;100321.63;5026144;28;20198;-76
2023/05/05 02:30:19;;;;;;;4.80;4.40;;;;;;;14.85;100.00;100320.81;5028739;28;20200;-76
2023/05/05 02:32:52;;;;;;;4.87;4.47;;;;;;;14.85;100.00;100315.63;5013779;28;20211;-76
2023/05/05 02:35:21;;;;;;;4.87;4.57;;;;;;;14.87;100.00;100314.69;5029067;28;20235;-77
2023/05/05 02:38:00;;;;;;;4.13;3.83;;;;;;;14.92;100.00;100318.00;5030744;28;20194;-76
2023/05/05 02:40:29;;;;;;;4.73;4.33;;;;;;;14.97;100.00;100322.25;5027713;28;20183;-77
2023/05/05 02:42:57;;;;;;;4.67;4.37;;;;;;;15.00;100.00;100317.81;5030637;28;20215;-76
2023/05/05 02:45:25;;;;;;;4.30;4.00;;;;;;;15.07;100.00;100331.53;5030886;28;20214;-75
2023/05/05 02:47:50;;;;;;;4.03;3.73;;;;;;;15.15;100.00;100320.91;5032766;28;20262;-77
2023/05/05 02:50:16;;;;;;;4.63;4.30;;;;;;;15.20;100.00;100319.88;5028473;28;20330;-76
2023/05/05 02:52:42;;;;;;;4.37;4.03;;;;;;;15.29;100.00;100323.13;5032392;28;21209;-76
2023/05/05 02:55:08;;;;;;;4.27;3.97;;;;;;;15.33;100.00;100322.16;5031136;28;20738;-76
2023/05/05 02:57:59;;;;;;;4.67;4.27;;;;;;;15.37;100.00;100332.44;5032194;28;20751;-76
2023/05/05 03:00:52;;;;;;;4.37;4.07;;;;;;;15.41;100.00;100330.59;5031916;28;20237;-76
2023/05/05 03:03:32;;;;;;;4.43;4.13;;;;;;;15.45;100.00;100329.63;5028939;28;20206;-76
2023/05/05 03:06:12;;;;;;;4.30;4.00;;;;;;;15.48;100.00;100326.06;5031332;28;20219;-76
2023/05/05 03:08:49;;;;;;;4.43;4.10;;;;;;;15.50;100.00;100330.31;5032897;28;20673;-76
2023/05/05 03:11:34;;;;;;;4.10;3.80;;;;;;;15.54;100.00;100318.91;5034060;28;20202;-74
2023/05/05 03:14:11;;;;;;;4.50;4.10;;;;;;;15.58;100.00;100322.28;5032986;28;20196;-76
2023/05/05 03:16:39;;;;;;;4.37;4.07;;;;;;;15.59;100.00;100321.38;5032299;28;20678;-77
2023/05/05 03:19:07;;;;;;;4.20;3.90;;;;;;;15.61;100.00;100314.38;5033240;28;20176;-75
2023/05/05 03:21:33;;;;;;;3.83;3.53;;;;;;;15.64;100.00;100316.06;5015411;28;20184;-76
2023/05/05 03:23:58;;;;;;;3.57;3.37;;;;;;;15.66;100.00;100317.72;5031316;28;20207;-76
2023/05/05 03:26:24;;;;;;;3.80;3.50;;;;;;;15.68;100.00;100315.91;5030512;28;20187;-76
2023/05/05 03:28:49;;;;;;;3.83;3.57;;;;;;;15.69;100.00;100320.25;5028930;28;20193;-77
2023/05/05 03:31:16;;;;;;;3.93;3.63;;;;;;;15.68;100.00;100328.97;5019011;28;20314;-77
2023/05/05 03:33:42;;;;;;;4.07;3.77;;;;;;;15.65;100.00;100326.44;5032766;28;20215;-76
2023/05/05 03:36:07;;;;;;;3.67;3.37;;;;;;;15.62;100.00;100326.53;5032658;28;20202;-76
2023/05/05 03:38:32;;;;;;;3.33;3.03;;;;;;;15.64;100.00;100331.72;5028792;28;20834;-77
2023/05/05 03:41:02;;;;;;;3.50;3.30;;;;;;;15.65;100.00;100331.66;5029328;28;20550;-77
2023/05/05 03:43:27;;;;;;;3.90;3.60;;;;;;;15.65;100.00;100326.44;5031044;28;20714;-76
2023/05/05 03:45:53;;;;;;;3.70;3.40;;;;;;;15.69;100.00;100327.19;5033941;28;20183;-76
2023/05/05 03:48:18;;;;;;;4.20;3.80;;;;;;;15.70;100.00;100331.50;5012548;28;20261;-78
2023/05/05 03:50:44;;;;;;;4.00;3.70;;;;;;;15.72;100.00;100334.09;5037636;28;20240;-75
2023/05/05 03:53:10;;;;;;;3.53;3.33;;;;;;;15.70;100.00;100337.59;5032168;28;20787;-76
2023/05/05 03:55:35;;;;;;;3.80;3.57;;;;;;;15.67;100.00;100342.91;5029115;28;20194;-77
2023/05/05 03:58:01;;;;;;;3.93;3.63;;;;;;;15.65;100.00;100336.03;5016051;28;20175;-76
2023/05/05 04:00:27;;;;;;;3.50;3.30;;;;;;;15.61;100.00;100342.22;5030868;28;20183;-75
2023/05/05 04:02:52;;;;;;;3.93;3.63;;;;;;;15.55;100.00;100335.44;5036280;28;20299;-76
2023/05/05 04:05:18;;;;;;;3.70;3.50;;;;;;;15.51;100.00;100339.03;5037434;28;20199;-76
2023/05/05 04:07:44;;;;;;;3.90;3.60;;;;;;;15.48;100.00;100339.09;5020513;28;20188;-76
2023/05/05 04:10:09;;;;;;;5.67;3.93;;;;;;;15.47;100.00;100337.41;5036805;28;20226;-76
2023/05/05 04:12:34;;;;;;;4.13;3.83;;;;;;;15.49;100.00;100346.03;5018182;28;20208;-77
2023/05/05 04:15:00;;;;;;;3.60;3.40;;;;;;;15.52;100.00;100346.78;5034467;28;20215;-76
2023/05/05 04:17:25;;;;;;;4.10;3.80;;;;;;;15.60;100.00;100348.34;5036376;28;20192;-77
2023/05/05 04:19:50;;;;;;;4.10;3.80;;;;;;;15.74;100.00;100351.41;5015784;28;20582;-76
2023/05/05 04:22:16;;;;;;;4.00;3.70;;;;;;;15.86;100.00;100350.22;5034241;28;20585;-76
2023/05/05 04:24:41;;;;;;;3.80;3.50;;;;;;;15.94;100.00;100348.22;5035850;28;20211;-76
2023/05/05 04:27:07;;;;;;;3.97;3.67;;;;;;;15.96;100.00;100341.22;5035965;28;20222;-77
2023/05/05 04:29:32;;;;;;;3.70;3.40;;;;;;;15.99;100.00;100354.16;5036620;28;21017;-75
2023/05/05 04:31:57;;;;;;;3.70;3.40;;;;;;;16.03;100.00;100354.91;5033454;28;20251;-76
2023/05/05 04:34:22;;;;;;;3.40;3.10;;;;;;;16.06;100.00;100356.56;5034836;28;20188;-77
2023/05/05 04:36:48;;;;;;;3.17;2.93;;;;;;;16.08;100.00;100360.88;5039371;28;20184;-77
2023/05/05 04:39:13;;;;;;;3.23;3.03;;;;;;;16.10;100.00;100352.97;5036962;28;20230;-76
2023/05/05 04:41:38;;;;;;;3.20;3.00;;;;;;;16.11;100.00;100352.06;5035315;28;20184;-78
2023/05/05 04:44:04;;;;;;;3.77;3.47;;;;;;;16.12;100.00;100357.25;5039107;28;20249;-75
2023/05/05 04:46:29;;;;;;;3.10;2.90;;;;;;;16.14;100.00;100352.81;5032975;28;20208;-76
2023/05/05 04:48:55;;;;;;;3.10;2.90;;;;;;;16.20;100.00;100358.78;5031633;28;20282;-76
2023/05/05 04:51:20;;;;;;;3.50;3.20;;;;;;;16.27;100.00;100358.53;5017233;28;20190;-77
2023/05/05 04:53:45;;;;;;;3.43;3.13;;;;;;;16.39;100.00;100369.47;5036570;28;20204;-76
2023/05/05 04:56:11;;;;;;;3.03;2.83;;;;;;;16.52;100.00;100360.34;5034657;28;20187;-76
2023/05/05 04:58:36;;;;;;;3.37;3.07;;;;;;;16.67;100.00;100364.22;5034269;28;20184;-76
2023/05/05 05:01:02;;;;;;;3.13;2.93;;;;;;;16.83;99.86;100372.41;5011924;28;20321;-77
2023/05/05 05:03:27;;;;;;;3.23;2.80;;;;;;;17.09;99.14;100367.22;5034519;28;20290;-76
2023/05/05 05:05:52;;;;;;;3.00;2.80;;;;;;;17.38;98.20;100366.19;5034505;28;20205;-76
2023/05/05 05:08:18;;;;;;;2.83;2.57;;;;;;;17.67;97.17;100372.97;5033324;28;20188;-76
2023/05/05 05:10:43;;;;;;;2.87;2.67;;;;;;;17.95;96.74;100378.94;5031993;28;20631;-76
2023/05/05 05:13:09;;;;;;;3.10;2.80;;;;;;;18.16;95.86;100374.66;5033122;28;20210;-76
2023/05/05 05:15:37;;;;;;;3.10;2.90;;;;;;;18.45;94.85;100372.63;5019232;28;20187;-76
2023/05/05 05:18:04;;;;;;;2.77;2.57;;;;;;;18.76;93.95;100370.50;5014944;28;20183;-76
2023/05/05 05:20:30;;;;;;;3.17;2.97;;;;;;;18.84;93.59;100374.50;5013111;28;20216;-76
2023/05/05 05:22:56;;;;;;;3.10;2.90;;;;;;;18.79;93.74;100380.88;5036715;28;20229;-76
2023/05/05 05:25:22;;;;;;;2.73;2.50;;;;;;;18.69;94.04;100376.03;5034713;28;20698;-75
2023/05/05 05:27:47;;;;;;;2.93;2.73;;;;;;;18.61;94.49;100379.88;5037019;28;20191;-75
2023/05/05 05:30:13;;;;;;;2.70;2.50;;;;;;;18.54;94.74;100379.28;5033940;28;20318;-76
2023/05/05 05:32:38;;;;;;;3.70;3.40;;;;;;;18.49;95.00;100378.59;5029225;28;20732;-76
2023/05/05 05:35:04;;;;;;;3.00;2.80;;;;;;;18.44;95.07;100370.94;5020667;28;20237;-76
2023/05/05 05:37:30;;;;;;;3.00;2.80;;;;;;;18.43;95.06;100377.09;5034467;28;20187;-76
2023/05/05 05:39:55;;;;;;;3.33;2.63;;;;;;;18.39;95.47;100388.59;5036865;28;20186;-76
2023/05/05 05:42:21;;;;;;;3.47;2.67;;;;;;;18.33;95.33;100387.06;5033944;28;20213;-76
2023/05/05 05:44:46;;;;;;;2.93;2.70;;;;;;;18.29;95.73;100385.50;5034178;28;20208;-76
2023/05/05 05:47:11;;;;;;;2.87;2.67;;;;;;;18.25;96.08;100392.63;5033680;28;20216;-75
2023/05/05 05:49:37;;;;;;;2.60;2.40;;;;;;;18.21;96.01;100396.28;5026584;28;20206;-76
2023/05/05 05:52:03;;;;;;;2.90;2.70;;;;;;;18.18;96.46;100392.91;5031959;28;20207;-78
2023/05/05 05:54:28;;;;;;;2.67;2.47;;;;;;;18.17;96.89;100397.31;5035003;28;20187;-77
2023/05/05 05:56:54;;;;;;;2.90;2.70;;;;;;;18.18;96.74;100392.91;5035222;28;20178;-76
2023/05/05 05:59:19;;;;;;;3.20;2.90;;;;;;;18.19;96.99;100392.88;5036468;28;20186;-76
2023/05/05 06:01:44;;;;;;;2.97;2.63;;;;;;;18.23;96.95;100394.44;5038221;28;20187;-76
2023/05/05 06:04:10;;;;;;;3.93;2.87;;;;;;;18.28;96.97;100399.53;5037152;28;20225;-77
2023/05/05 06:06:35;;;;;;;2.73;2.53;;;;;;;18.42;96.59;100401.56;5037096;28;20197;-76
2023/05/05 06:09:00;;;;;;;2.93;2.73;;;;;;;19.10;95.12;100397.97;5038017;28;20213;-76
2023/05/05 06:11:26;;;;;;;3.03;2.60;;;;;;;20.28;91.55;100403.22;5038090;28;20187;-77
2023/05/05 06:13:51;;;;;;;2.73;2.50;;;;;;;21.55;87.53;100402.16;5039193;28;20207;-76
2023/05/05 06:16:16;;;;;;;2.60;2.40;;;;;;;22.65;84.19;100401.44;5016267;28;20203;-76
2023/05/05 06:18:42;;;;;;;2.43;2.33;;;;;;;23.27;82.06;100401.34;5038208;28;20195;-76
2023/05/05 06:21:07;;;;;;;2.57;2.20;;;;;;;23.31;81.26;100404.66;5033004;28;20187;-76
2023/05/05 06:23:32;;;;;;;2.10;2.00;;;;;;;22.89;82.30;100398.34;5036289;28;20278;-76
2023/05/05 06:25:58;;;;;;;2.17;2.00;;;;;;;22.70;83.08;100399.41;5034299;28;22234;-76
2023/05/05 06:28:23;;;;;;;2.50;2.20;;;;;;;22.89;82.37;100393.88;5032933;28;20179;-76
2023/05/05 06:30:48;;;;;;;3.43;1.87;;;;;;;22.75;82.22;100405.28;5028702;28;20210;-76
2023/05/05 06:33:14;;;;;;;3.60;2.07;;;;;;;22.57;82.82;100408.97;5032751;28;20755;-77
2023/05/05 06:35:39;;;;;;;3.03;2.00;;;;;;;22.39;83.04;100404.59;5040901;28;20274;-76
2023/05/05 06:38:05;;;;;;;2.40;2.20;;;;;;;22.25;83.11;100409.81;5029709;28;20222;-76
2023/05/05 06:40:30;;;;;;;2.20;2.10;;;;;;;22.17;83.09;100414.69;5030613;28;20210;-76
2023/05/05 06:42:56;;;;;;;2.23;1.90;;;;;;;22.11;83.45;100418.50;5033093;28;20292;-77
2023/05/05 06:45:21;;;;;;;2.20;2.10;;;;;;;22.07;83.55;100411.69;5027056;28;20307;-77
2023/05/05 06:47:47;;;;;;;2.40;2.20;;;;;;;22.17;83.14;100410.25;5038169;28;20668;-77
2023/05/05 06:50:13;;;;;;;2.20;2.00;;;;;;;22.52;82.75;100403.97;5037302;28;20234;-76
2023/05/05 06:52:38;;;;;;;2.00;1.83;;;;;;;22.86;81.66;100412.53;5037407;28;20603;-77
2023/05/05 06:55:04;;;;;;;1.90;1.80;;;;;;;23.12;80.88;100415.44;5035036;28;20257;-76
2023/05/05 06:57:30;;;;;;;3.50;2.10;;;;;;;23.29;80.19;100414.44;5032002;28;20214;-76
2023/05/05 06:59:55;;;;;;;2.63;1.97;;;;;;;23.27;79.84;100408.41;5035850;28;20537;-77
2023/05/05 07:02:20;;;;;;;2.57;2.37;;;;;;;23.08;79.90;100409.47;5035945;28;20792;-77
2023/05/05 07:04:46;;;;;;;2.10;2.00;;;;;;;22.90;80.78;100413.22;5034937;28;20647;-76
2023/05/05 07:07:11;;;;;;;2.23;2.07;;;;;;;22.69;81.15;100411.72;5019866;28;20205;-76
2023/05/05 07:09:36;;;;;;;2.00;1.90;;;;;;;22.53;81.36;100410.94;5034684;28;20203;-75
2023/05/05 07:12:02;;;;;;;2.37;2.00;;;;;;;22.39;81.47;100411.69;5033369;28;20241;-77
2023/05/05 07:14:27;;;;;;;2.20;2.10;;;;;;;22.32;81.86;100420.84;5031993;28;20191;-76
2023/05/05 07:16:53;;;;;;;2.30;2.10;;;;;;;22.31;82.01;100419.19;5032940;28;20198;-77
2023/05/05 07:19:18;;;;;;;2.37;2.17;;;;;;;22.36;81.81;100423.25;5036295;28;20507;-76
2023/05/05 07:21:43;;;;;;;3.43;2.27;;;;;;;22.55;81.65;100424.88;5035805;28;20194;-76
2023/05/05 07:24:09;;;;;;;2.50;2.30;;;;;;;22.77;81.06;100418.38;5031860;28;20180;-74
2023/05/05 07:26:34;;;;;;;2.93;2.40;;;;;;;22.91;80.61;100422.84;5034591;28;20253;-77
2023/05/05 07:29:01;;;;;;;2.47;2.27;;;;;;;22.96;79.85;100419.00;5036251;28;20217;-77
2023/05/05 07:31:26;;;;;;;2.33;2.17;;;;;;;23.00;79.39;100411.75;5037756;28;20663;-78
2023/05/05 07:33:52;;;;;;;2.10;2.00;;;;;;;23.09;79.45;100408.53;5036718;28;20253;-76
2023/05/05 07:36:17;;;;;;;3.60;2.07;;;;;;;23.24;79.03;100416.50;5031707;28;20187;-76
2023/05/05 07:38:43;;;;;;;2.10;1.90;;;;;;;23.31;78.62;100417.00;5041133;28;20186;-76
2023/05/05 07:41:10;;;;;;;2.30;2.10;;;;;;;23.30;78.32;100413.50;5032765;28;20237;-75
2023/05/05 07:43:36;;;;;;;2.33;2.07;;;;;;;23.36;77.96;100415.78;5035138;28;20215;-77
2023/05/05 07:46:02;;;;;;;1.80;1.70;;;;;;;23.60;77.26;100413.41;5033198;28;20291;-76
2023/05/05 07:48:27;;;;;;;2.27;2.07;;;;;;;23.93;76.20;100415.84;5033327;28;20631;-76
2023/05/05 07:50:53;;;;;;;2.43;1.80;;;;;;;24.35;75.34;100414.91;5038486;28;20268;-75
2023/05/05 07:53:19;;;;;;;2.43;2.23;;;;;;;24.69;74.63;100403.06;5018895;28;20223;-76
2023/05/05 07:55:45;;;;;;;2.50;1.77;;;;;;;24.89;73.90;100413.19;5035558;28;20435;-77
2023/05/05 07:58:10;;;;;;;2.30;2.00;;;;;;;24.96;73.56;100403.88;5034532;28;20783;-77
2023/05/05 08:00:36;;;;;;;1.93;1.80;;;;;;;25.06;73.08;100406.75;5035461;28;20175;-76
2023/05/05 08:03:01;;;;;;;3.07;1.90;;;;;;;25.17;72.86;100397.22;5036256;28;20525;-76
2023/05/05 08:05:27;;;;;;;2.10;1.90;;;;;;;25.28;72.60;100392.03;5033639;28;20271;-75
2023/05/05 08:07:52;;;;;;;2.23;1.60;;;;;;;25.39;72.17;100386.00;5036801;28;20257;-77
2023/05/05 08:10:17;;;;;;;2.10;1.80;;;;;;;25.51;72.08;100386.97;5032237;28;20566;-76
2023/05/05 08:12:43;;;;;;;1.80;1.60;;;;;;;25.59;70.91;100394.38;5036485;28;20865;-77
2023/05/05 08:15:08;;;;;;;1.90;1.80;;;;;;;25.50;70.79;100385.28;5035273;28;20213;-76
2023/05/05 08:17:48;;;;;;;2.00;1.80;;;;;;;25.45;71.19;100388.25;5019633;28;20688;-76
2023/05/05 08:20:15;;;;;;;2.43;2.00;;;;;;;25.51;71.32;100394.91;5036365;28;20258;-75
2023/05/05 08:22:41;;;;;;;3.10;2.30;;;;;;;25.66;70.55;100377.06;5035829;28;21749;-77
2023/05/05 08:25:07;;;;;;;1.97;1.87;;;;;;;25.82;70.16;100375.03;5037602;28;20320;-77
2023/05/05 08:27:34;;;;;;;2.07;1.67;;;;;;;25.93;69.44;100378.72;5030756;28;20180;-75
2023/05/05 08:30:00;;;;;;;3.20;1.60;;;;;;;25.88;69.35;100379.03;5019607;28;20309;-77
2023/05/05 08:32:26;;;;;;;2.20;1.60;;;;;;;25.95;68.88;100384.72;5038546;28;20221;-77
2023/05/05 08:34:51;;;;;;;2.43;1.97;;;;;;;25.86;69.12;100388.94;5034599;28;20274;-76
2023/05/05 08:37:17;;;;;;;1.93;1.67;;;;;;;25.69;69.30;100392.75;5037859;28;20202;-76
2023/05/05 08:39:43;;;;;;;2.13;1.67;;;;;;;25.49;69.51;100396.81;5035199;28;20270;-77
2023/05/05 08:42:08;;;;;;;4.80;1.87;;;;;;;25.32;70.12;100396.16;5024303;28;20741;-76
2023/05/05 08:44:34;;;;;;;2.40;1.73;;;;;;;25.26;70.47;100391.28;5037523;28;20193;-76
2023/05/05 08:47:01;;;;;;;2.83;1.73;;;;;;;25.29;70.71;100396.38;5037502;28;20194;-77
2023/05/05 08:49:36;;;;;;;1.97;1.53;;;;;;;25.33;70.76;100400.50;5036249;28;20211;-76
2023/05/05 08:52:06;;;;;;;1.67;1.57;;;;;;;25.32;70.73;100393.53;5019873;28;20187;-77
2023/05/05 08:54:36;;;;;;;2.73;1.63;;;;;;;25.23;70.76;100399.47;5037286;28;20175;-76
2023/05/05 08:57:05;;;;;;;3.30;1.90;;;;;;;25.00;70.60;100393.09;5038233;28;20187;-76
2023/05/05 08:59:32;;;;;;;2.17;1.67;;;;;;;24.73;70.93;100401.97;5037708;28;20179;-76
2023/05/05 09:01:58;;;;;;;3.40;1.93;;;;;;;24.50;71.84;100391.06;5020446;28;20190;-76
2023/05/05 09:04:23;;;;;;;2.20;1.50;;;;;;;24.26;72.28;100402.31;5039345;28;20651;-77
2023/05/05 09:06:48;;;;;;;2.27;1.53;;;;;;;24.10;72.72;100398.97;5040861;28;20180;-77
2023/05/05 09:09:14;;;;;;;1.63;1.50;;;;;;;23.94;73.26;100393.75;5024909;28;20200;-77
2023/05/05 09:11:40;;;;;;;1.77;1.67;;;;;;;23.88;73.59;100392.34;5035617;28;20192;-75
2023/05/05 09:14:06;;;;;;;1.90;1.70;;;;;;;23.89;73.80;100391.41;5040198;28;20217;-76
2023/05/05 09:16:31;;;;;;;2.67;1.73;;;;;;;23.94;73.43;100386.69;5037903;28;20271;-76
2023/05/05 09:19:01;;;;;;;1.63;1.53;;;;;;;24.06;73.79;100393.00;5039084;28;20243;-77
2023/05/05 09:21:28;;;;;;;1.67;1.57;;;;;;;24.22;73.73;100392.88;5038311;28;20182;-76
2023/05/05 09:24:22;;;;;;;1.80;1.50;;;;;;;24.48;73.77;100399.09;5012089;28;20222;-76
2023/05/05 09:26:48;;;;;;;2.10;1.90;;;;;;;24.74;73.15;100391.25;5029789;28;20192;-76
2023/05/05 09:29:21;;;;;;;2.23;1.80;;;;;;;24.96;72.72;100390.66;5020255;28;20179;-75
2023/05/05 09:32:07;;;;;;;3.23;1.77;;;;;;;25.20;72.01;100386.44;5026787;28;20237;-76
2023/05/05 09:34:33;;;;;;;2.43;1.73;;;;;;;25.37;72.16;100380.81;5015338;28;20196;-75
2023/05/05 09:36:59;;;;;;;1.80;1.70;;;;;;;25.52;71.51;100384.19;5034228;28;20211;-76
2023/05/05 09:39:25;;;;;;;2.53;1.70;;;;;;;25.67;71.30;100381.41;5026705;28;20492;-77
2023/05/05 09:41:50;;;;;;;2.67;1.73;;;;;;;25.77;71.08;100377.19;5009828;28;20195;-75
2023/05/05 09:44:15;;;;;;;1.80;1.70;;;;;;;25.83;70.87;100382.03;5014370;28;20262;-76
2023/05/05 09:46:51;;;;;;;2.43;1.70;;;;;;;25.90;70.55;100386.88;5026258;28;20972;-76
2023/05/05 09:49:19;;;;;;;2.43;1.80;;;;;;;25.95;70.26;100382.09;5026568;28;20306;-76
2023/05/05 09:51:46;;;;;;;1.80;1.70;;;;;;;25.99;69.95;100387.06;5027565;28;20190;-76
2023/05/05 09:54:28;;;;;;;1.97;1.87;;;;;;;26.01;70.05;100387.81;5032260;28;20199;-77
2023/05/05 09:56:54;;;;;;;3.00;2.20;;;;;;;26.02;70.24;100383.34;5038150;28;20207;-76
2023/05/05 09:59:20;;;;;;;2.43;2.20;;;;;;;26.03;70.13;100382.38;5041210;28;20276;-76
2023/05/05 10:01:46;;;;;;;1.90;1.80;;;;;;;25.99;70.19;100381.78;5033758;28;20666;-76
2023/05/05 10:04:28;;;;;;;2.57;1.90;;;;;;;26.03;69.98;100374.44;5020955;28;20274;-77
2023/05/05 10:06:55;;;;;;;2.47;1.73;;;;;;;26.06;69.97;100376.88;5032261;28;20541;-76
2023/05/05 10:09:21;;;;;;;2.30;2.10;;;;;;;26.12;70.26;100375.59;5037754;28;20200;-78
2023/05/05 10:11:48;;;;;;;3.30;2.03;;;;;;;26.10;70.29;100377.47;5020812;28;20192;-77
2023/05/05 10:14:16;;;;;;;2.03;1.83;;;;;;;26.16;70.25;100380.56;5033039;28;20195;-76
2023/05/05 10:16:52;;;;;;;2.50;2.30;;;;;;;26.26;69.87;100378.09;5017648;28;20188;-76
2023/05/05 10:19:19;;;;;;;2.93;2.00;;;;;;;26.29;69.50;100371.69;5033894;28;20314;-76
2023/05/05 10:21:48;;;;;;;3.20;1.80;;;;;;;26.30;69.65;100370.75;5036896;28;20207;-75
2023/05/05 10:24:37;;;;;;;2.03;1.83;;;;;;;26.36;69.07;100377.38;5014676;28;20195;-76
2023/05/05 10:27:11;;;;;;;3.33;2.20;;;;;;;26.45;69.18;100372.25;5030457;28;20626;-75
2023/05/05 10:29:49;;;;;;;4.43;1.93;;;;;;;26.52;69.13;100366.50;5034153;28;20799;-76
2023/05/05 10:32:27;;;;;;;2.40;1.87;;;;;;;26.59;68.95;100370.38;5033061;28;20234;-77
2023/05/05 10:34:57;;;;;;;1.50;1.40;;;;;;;26.67;68.39;100375.09;5033455;28;20622;-76
2023/05/05 10:37:22;;;;;;;1.83;1.60;;;;;;;26.72;67.65;100365.81;5033564;28;20203;-76
2023/05/05 10:39:53;;;;;;;4.07;1.90;;;;;;;26.86;67.22;100359.50;5031047;28;20180;-75
2023/05/05 10:42:21;;;;;;;1.90;1.40;;;;;;;26.97;66.93;100358.69;5036568;28;20214;-76
2023/05/05 10:44:47;;;;;;;1.67;1.57;;;;;;;27.04;66.29;100351.91;5016608;28;20186;-76
2023/05/05 10:47:14;;;;;;;1.53;1.43;;;;;;;27.22;66.37;100348.78;5032298;28;20213;-75
2023/05/05 10:50:23;;;;;;;1.97;1.30;;;;;;;27.30;66.14;100349.00;5008371;28;20223;-76
2023/05/05 10:53:16;;;;;;;2.10;1.50;;;;;;;27.35;65.76;100344.19;5015343;28;20269;-76
2023/05/05 10:55:58;;;;;;;1.53;1.43;;;;;;;27.47;66.01;100345.06;5031729;28;20198;-77
2023/05/05 10:58:32;;;;;;;1.40;1.30;;;;;;;27.60;66.17;100336.97;5052437;28;20175;-77
2023/05/05 11:00:58;;;;;;;1.83;1.63;;;;;;;27.60;65.56;100336.09;5017887;28;20172;-75
2023/05/05 11:03:23;;;;;;;1.57;1.40;;;;;;;27.56;65.44;100330.19;5036816;28;20198;-76
2023/05/05 11:06:07;;;;;;;3.90;1.80;;;;;;;27.64;65.14;100337.56;5037337;28;20187;-76
2023/05/05 11:08:35;;;;;;;2.33;1.47;;;;;;;27.71;64.95;100327.28;5035768;28;20183;-76
2023/05/05 11:11:01;;;;;;;2.13;1.80;;;;;;;27.61;64.54;100317.38;5030664;28;20193;-76
2023/05/05 11:13:27;;;;;;;1.47;1.37;;;;;;;27.56;64.89;100318.72;5036839;28;20208;-76
2023/05/05 11:16:02;;;;;;;1.13;1.10;;;;;;;27.53;64.76;100310.00;5012549;28;20237;-76
2023/05/05 11:18:38;;;;;;;1.80;1.70;;;;;;;27.64;64.82;100308.31;5027816;28;20190;-77
2023/05/05 11:21:15;;;;;;;2.00;1.57;;;;;;;27.72;64.90;100305.88;5030635;28;20183;-75
2023/05/05 11:23:42;;;;;;;2.07;1.60;;;;;;;27.73;64.83;100306.72;5030948;28;20757;-76
2023/05/05 11:26:08;;;;;;;1.70;1.50;;;;;;;27.70;65.13;100294.50;5032005;28;20664;-76